createdAt,value
2022-11-21T00:01:36.334Z,10.76
2022-11-21T00:04:03.450Z,10.77
2022-11-21T00:06:30.361Z,10.48
2022-11-21T00:08:57.244Z,10.61
2022-11-21T00:11:24.126Z,10.77
2022-11-21T00:13:50.939Z,10.75
2022-11-21T00:16:17.829Z,10.59
2022-11-21T00:18:44.774Z,10.83
2022-11-21T00:21:16.865Z,10.72
2022-11-21T00:23:45.238Z,10.96
2022-11-21T00:26:13.920Z,10.96
2022-11-21T00:28:41.076Z,10.84
2022-11-21T00:31:08.480Z,10.62
2022-11-21T00:33:37.044Z,10.76
2022-11-21T00:36:10.692Z,10.81
2022-11-21T00:38:39.020Z,10.72
2022-11-21T00:41:06.456Z,10.68
2022-11-21T00:43:33.585Z,10.91
2022-11-21T07:43:45.995Z,6.48
2022-11-21T07:46:13.080Z,7.15
2022-11-21T07:48:39.980Z,7.37
2022-11-21T07:51:06.937Z,7.69
2022-11-21T07:53:34.023Z,7.81
2022-11-21T07:56:01.142Z,7.59
2022-11-21T07:58:28.057Z,7.93
2022-11-21T08:00:55.063Z,7.99
2022-11-21T08:03:22.809Z,8.14
2022-11-21T08:05:49.780Z,8.19
2022-11-21T08:08:16.887Z,8.00
2022-11-21T08:10:45.584Z,8.01
2022-11-21T08:13:13.763Z,8.24
2022-11-21T08:15:41.219Z,8.29
2022-11-21T08:18:13.705Z,8.12
2022-11-21T08:20:41.203Z,8.39
2022-11-21T08:23:10.475Z,7.76
2022-11-21T08:25:41.533Z,8.19
2022-11-21T08:28:10.559Z,7.96
2022-11-21T08:30:38.387Z,8.42
2022-11-21T08:33:06.408Z,8.40
2022-11-21T08:35:37.842Z,8.30
2022-11-21T08:38:05.564Z,8.37
2022-11-21T08:40:33.478Z,8.51
2022-11-21T08:43:02.877Z,8.09
2022-11-21T08:45:30.066Z,8.67
2022-11-21T08:47:57.116Z,8.27
2022-11-21T08:50:25.020Z,8.61
2022-11-21T08:52:52.328Z,8.60
2022-11-21T08:55:19.220Z,8.28
2022-11-21T08:57:46.140Z,8.55
2022-11-21T09:00:13.863Z,8.70
2022-11-21T09:02:40.754Z,8.35
2022-11-21T09:05:09.016Z,8.68
2022-11-21T09:07:36.437Z,8.68
2022-11-21T09:10:04.103Z,8.72
2022-11-21T09:12:31.307Z,8.58
2022-11-21T09:15:16.922Z,8.95
2022-11-21T09:18:02.827Z,8.57
2022-11-21T09:20:30.589Z,8.90
2022-11-21T09:22:57.832Z,9.03
2022-11-21T09:25:24.842Z,9.10
2022-11-21T09:27:51.687Z,9.01
2022-11-21T09:30:18.748Z,9.12
2022-11-21T09:32:45.638Z,8.87
2022-11-21T09:35:12.760Z,9.02
2022-11-21T09:37:40.361Z,9.20
2022-11-21T09:40:12.859Z,9.20
2022-11-21T09:43:10.445Z,9.49
2022-11-21T09:45:57.089Z,9.31
2022-11-21T09:49:01.343Z,9.45
2022-11-21T09:51:31.203Z,9.40
2022-11-21T09:54:14.061Z,9.17
2022-11-21T09:56:43.380Z,9.57
2022-11-21T09:59:37.397Z,9.57
2022-11-21T10:02:16.014Z,9.65
2022-11-21T10:04:43.681Z,9.63
2022-11-21T10:07:13.674Z,9.74
2022-11-21T10:10:14.570Z,9.80
2022-11-21T10:13:13.122Z,9.78
2022-11-21T10:15:47.038Z,9.73
2022-11-21T10:18:43.668Z,9.60
2022-11-21T10:21:16.303Z,9.83
2022-11-21T10:24:12.320Z,9.83
2022-11-21T10:26:45.870Z,9.60
2022-11-21T10:29:22.542Z,9.90
2022-11-21T10:31:50.092Z,9.82
2022-11-21T10:34:25.105Z,9.62
2022-11-21T10:36:57.086Z,9.53
2022-11-21T10:39:51.045Z,9.73
2022-11-21T10:42:36.317Z,9.77
2022-11-21T10:45:19.402Z,9.63
2022-11-21T10:47:51.618Z,9.43
2022-11-21T10:50:39.521Z,9.76
2022-11-21T10:53:31.318Z,9.34
2022-11-21T10:56:05.982Z,9.70
2022-11-21T10:58:46.280Z,9.55
2022-11-21T11:01:34.841Z,9.76
2022-11-21T11:04:44.133Z,9.80
2022-11-21T11:07:23.970Z,9.79
2022-11-21T11:09:52.718Z,9.71
2022-11-21T11:12:23.173Z,9.74
2022-11-21T11:14:56.332Z,9.81
2022-11-21T11:17:28.774Z,9.61
2022-11-21T11:20:27.963Z,9.67
2022-11-21T11:22:54.860Z,9.55
2022-11-21T11:25:22.871Z,9.95
2022-11-21T11:27:49.853Z,10.05
2022-11-21T11:30:18.677Z,9.82
2022-11-21T11:32:45.804Z,9.81
2022-11-21T11:35:12.684Z,9.98
2022-11-21T11:37:41.787Z,9.64
2022-11-21T11:40:41.146Z,9.95
2022-11-21T11:43:38.484Z,9.66
2022-11-21T11:46:44.402Z,9.61
2022-11-21T11:49:59.358Z,9.79
2022-11-21T11:52:32.342Z,9.23
2022-11-21T11:55:05.748Z,9.64
2022-11-21T11:57:35.710Z,9.51
2022-11-21T12:00:35.981Z,9.66
2022-11-21T12:03:13.893Z,9.61
2022-11-21T12:05:59.447Z,9.67
2022-11-21T12:08:42.235Z,9.68
2022-11-21T12:12:06.822Z,9.74
2022-11-21T12:15:08.083Z,9.67
2022-11-21T12:17:56.211Z,9.72
2022-11-21T12:21:05.721Z,9.65
2022-11-21T12:23:44.400Z,9.60
2022-11-21T12:26:42.161Z,9.67
2022-11-21T12:29:37.256Z,9.54
2022-11-21T12:32:30.461Z,9.65
2022-11-21T12:35:26.437Z,9.67
2022-11-21T12:37:53.326Z,9.63
2022-11-21T12:40:42.170Z,9.63
2022-11-21T12:43:30.528Z,9.63
2022-11-21T12:46:19.763Z,9.27
2022-11-21T12:49:31.467Z,9.50
2022-11-21T12:52:17.062Z,9.49
2022-11-21T12:55:16.212Z,8.95
2022-11-21T12:58:05.991Z,9.23
2022-11-21T13:01:18.146Z,9.25
2022-11-21T13:04:03.482Z,9.21
2022-11-21T13:06:34.196Z,9.13
2022-11-21T13:09:06.076Z,9.02
2022-11-21T13:11:58.844Z,9.08
2022-11-21T13:14:31.657Z,9.07
2022-11-21T13:17:10.983Z,8.99
2022-11-21T13:19:58.958Z,9.17
2022-11-21T13:22:56.221Z,9.15
2022-11-21T13:25:32.527Z,9.20
2022-11-21T13:28:32.815Z,9.22
2022-11-21T13:31:05.894Z,8.95
2022-11-21T13:33:35.928Z,8.96
2022-11-21T13:36:07.095Z,9.03
2022-11-21T13:38:53.025Z,9.05
2022-11-21T13:41:53.791Z,9.16
2022-11-21T13:44:41.541Z,9.22
2022-11-21T13:47:09.535Z,9.26
2022-11-21T13:49:58.425Z,9.29
2022-11-21T13:52:34.360Z,9.26
2022-11-21T13:55:19.595Z,9.29
2022-11-21T13:57:49.779Z,9.38
2022-11-21T14:00:28.886Z,9.39
2022-11-21T14:03:07.597Z,9.46
2022-11-21T14:05:40.424Z,9.54
2022-11-21T14:08:17.211Z,9.57
2022-11-21T14:10:46.142Z,9.27
2022-11-21T14:13:22.762Z,9.64
2022-11-21T14:16:14.440Z,9.73
2022-11-21T14:18:44.883Z,9.65
2022-11-21T14:21:38.450Z,9.51
2022-11-21T14:24:22.087Z,9.73
2022-11-21T14:26:52.469Z,9.50
2022-11-21T14:29:39.046Z,9.45
2022-11-21T14:32:06.434Z,9.53
2022-11-21T14:34:33.569Z,9.35
2022-11-21T14:37:03.575Z,9.27
2022-11-21T14:39:40.966Z,9.21
2022-11-21T14:42:16.264Z,9.35
2022-11-21T14:44:44.069Z,9.36
2022-11-21T14:47:24.703Z,9.47
2022-11-21T14:49:55.593Z,9.28
2022-11-21T14:52:31.098Z,9.39
2022-11-21T14:57:48.856Z,9.43
2022-11-21T15:00:51.341Z,9.40
2022-11-21T15:03:19.369Z,9.11
2022-11-21T15:06:01.937Z,9.47
2022-11-21T15:09:03.263Z,9.27
2022-11-21T15:11:23.573Z,9.22
2022-11-21T15:14:16.944Z,9.12
2022-11-21T15:16:47.535Z,9.15
2022-11-21T15:19:26.847Z,9.04
2022-11-21T15:21:57.902Z,9.23
2022-11-21T15:24:42.417Z,8.87
2022-11-21T15:27:36.375Z,9.03
2022-11-21T15:30:21.215Z,8.70
2022-11-21T15:33:03.949Z,8.97
2022-11-21T15:35:41.673Z,8.75
2022-11-21T15:38:20.942Z,8.74
2022-11-21T15:41:10.785Z,8.56
2022-11-21T15:43:55.735Z,8.61
2022-11-21T15:46:23.938Z,8.52
2022-11-21T15:49:31.048Z,8.48
2022-11-21T15:52:09.539Z,8.65
2022-11-21T15:54:37.240Z,8.72
2022-11-21T15:57:04.253Z,8.75
2022-11-21T15:59:31.784Z,8.53
2022-11-21T16:01:58.854Z,8.46
2022-11-21T16:04:26.417Z,8.55
2022-11-21T16:06:54.817Z,8.52
2022-11-21T16:09:21.849Z,8.61
2022-11-21T16:11:48.949Z,8.22
2022-11-21T16:14:18.428Z,8.25
2022-11-21T16:16:47.128Z,8.46
2022-11-21T16:19:15.696Z,8.07
2022-11-21T16:21:43.004Z,8.32
2022-11-21T16:24:09.989Z,8.33
2022-11-21T16:26:36.987Z,8.21
2022-11-21T16:29:07.412Z,8.25
2022-11-21T16:31:34.738Z,8.31
2022-11-21T16:34:01.931Z,8.40
2022-11-21T16:36:30.791Z,8.40
2022-11-21T16:39:01.750Z,8.42
2022-11-21T16:41:30.500Z,8.08
2022-11-21T16:43:57.908Z,8.25
2022-11-21T16:46:25.323Z,8.48
2022-11-21T16:49:00.721Z,8.52
2022-11-21T16:51:28.437Z,8.27
2022-11-21T16:53:57.214Z,8.36
2022-11-21T16:56:24.723Z,8.30
2022-11-21T16:58:51.990Z,8.34
2022-11-21T17:01:24.538Z,8.13
2022-11-21T17:03:52.382Z,7.92
2022-11-21T17:06:22.091Z,8.20
2022-11-21T17:08:49.578Z,8.06
2022-11-21T17:11:20.417Z,8.11
2022-11-21T17:13:48.887Z,7.95
2022-11-21T17:16:18.506Z,7.69
2022-11-21T17:18:45.972Z,8.04
2022-11-21T17:21:16.146Z,8.06
2022-11-21T17:23:44.830Z,7.74
2022-11-21T17:26:14.804Z,7.77
2022-11-21T17:28:45.487Z,7.58
2022-11-21T17:31:15.459Z,7.63
2022-11-21T17:33:43.897Z,7.75
2022-11-21T17:36:15.188Z,7.60
2022-11-21T17:38:47.174Z,7.69
2022-11-21T17:41:18.701Z,7.72
2022-11-21T17:43:47.272Z,7.60
2022-11-21T17:46:20.099Z,7.67
2022-11-21T17:48:54.661Z,7.86
2022-11-21T17:51:25.764Z,7.87
2022-11-21T17:53:53.221Z,7.59
2022-11-21T17:56:26.621Z,7.67
2022-11-21T17:58:53.746Z,7.79
2022-11-21T18:01:21.132Z,7.62
2022-11-21T18:03:57.623Z,7.92
2022-11-21T18:06:43.204Z,7.88
2022-11-21T18:09:11.891Z,7.80
2022-11-21T18:11:40.568Z,7.88
2022-11-21T18:14:10.184Z,7.77
2022-11-21T18:16:39.697Z,7.84
2022-11-21T18:19:07.674Z,7.76
2022-11-21T18:21:35.990Z,7.65
2022-11-21T18:24:03.131Z,7.80
2022-11-21T18:26:32.798Z,7.80
2022-11-21T18:31:48.783Z,7.78
2022-11-21T18:34:15.747Z,7.70
2022-11-21T18:36:42.770Z,7.56
2022-11-21T18:39:14.640Z,7.57
2022-11-21T18:41:42.039Z,7.45
2022-11-21T18:44:10.083Z,7.77
2022-11-21T18:46:38.826Z,7.64
2022-11-21T18:49:07.809Z,7.45
2022-11-21T18:51:36.706Z,7.61
2022-11-21T18:54:10.382Z,7.80
2022-11-21T18:56:38.969Z,7.68
2022-11-21T18:59:07.057Z,7.65
2022-11-21T19:01:36.406Z,7.79
2022-11-21T19:04:03.951Z,7.72
2022-11-21T19:06:31.323Z,7.89
2022-11-21T19:08:58.981Z,7.70
2022-11-21T19:11:28.715Z,7.80
2022-11-21T19:13:57.808Z,7.72
2022-11-21T19:16:26.650Z,7.75
2022-11-21T19:21:42.433Z,7.21
2022-11-21T19:24:15.233Z,7.48
2022-11-21T19:26:43.444Z,7.44
2022-11-21T19:29:11.148Z,7.28
2022-11-21T19:31:44.491Z,7.47
2022-11-21T19:34:13.937Z,7.28
2022-11-21T19:36:41.087Z,7.48
2022-11-21T19:39:09.190Z,7.18
2022-11-21T19:41:36.304Z,7.50
2022-11-21T19:44:03.817Z,7.14
2022-11-21T19:46:35.562Z,7.53
2022-11-21T19:49:03.371Z,7.26
2022-11-21T19:51:35.811Z,7.30
2022-11-21T19:54:04.568Z,7.25
2022-11-21T19:56:31.673Z,7.22
2022-11-21T19:58:59.635Z,6.99
2022-11-21T20:01:32.074Z,7.26
2022-11-21T20:04:02.592Z,7.18
2022-11-21T20:06:46.109Z,7.16
2022-11-21T20:09:15.960Z,7.18
2022-11-21T20:11:45.044Z,7.41
2022-11-21T20:14:19.645Z,7.22
2022-11-21T20:16:49.003Z,7.42
2022-11-21T20:19:18.221Z,7.39
2022-11-21T20:21:46.189Z,7.51
2022-11-21T20:24:13.476Z,7.23
2022-11-21T20:26:40.893Z,7.24
2022-11-21T20:29:08.242Z,7.37
2022-11-21T20:31:37.723Z,7.27
2022-11-21T20:34:12.623Z,7.43
2022-11-21T20:36:40.123Z,7.59
2022-11-21T20:39:10.914Z,7.51
2022-11-21T20:41:37.971Z,7.24
2022-11-21T20:47:00.342Z,7.32
2022-11-21T20:49:27.485Z,7.30
2022-11-21T20:53:43.853Z,7.26
2022-11-21T20:54:41.592Z,7.37
2022-11-21T20:57:14.563Z,7.12
2022-11-21T20:59:42.449Z,6.96
2022-11-21T21:02:12.466Z,7.00
2022-11-21T21:04:39.741Z,7.15
2022-11-21T21:07:06.737Z,6.78
2022-11-21T21:09:33.755Z,6.96
2022-11-21T21:12:00.645Z,7.03
2022-11-21T21:14:27.595Z,6.94
2022-11-21T21:16:54.441Z,6.42
2022-11-21T21:19:21.963Z,7.13
2022-11-21T21:21:48.960Z,7.12
2022-11-21T21:24:16.041Z,7.14
2022-11-21T21:26:47.794Z,7.03
2022-11-21T21:29:19.966Z,7.09
2022-11-21T21:31:51.604Z,7.14
2022-11-21T21:34:23.250Z,7.08
2022-11-21T21:36:51.145Z,6.70
2022-11-21T21:39:18.393Z,7.04
2022-11-21T21:41:47.276Z,6.85
2022-11-21T21:44:15.089Z,7.10
2022-11-21T21:46:42.361Z,7.06
2022-11-21T21:49:09.322Z,7.04
2022-11-21T21:51:37.449Z,6.80
2022-11-21T21:54:05.236Z,6.87
2022-11-21T21:56:32.719Z,6.91
2022-11-21T21:58:59.913Z,6.78
2022-11-21T22:01:29.029Z,7.03
2022-11-21T22:03:58.298Z,6.86
2022-11-21T22:06:25.706Z,6.84
2022-11-21T22:08:54.031Z,6.72
2022-11-21T22:11:23.332Z,6.83
2022-11-21T22:13:56.328Z,7.01
2022-11-21T22:16:23.686Z,7.03
2022-11-21T22:18:50.623Z,6.57
2022-11-21T22:21:17.572Z,6.95
2022-11-21T22:24:09.288Z,7.01
2022-11-21T22:26:32.354Z,6.79
2022-11-21T22:28:59.316Z,6.45
2022-11-21T22:31:26.302Z,6.65
2022-11-21T22:33:53.350Z,6.78
2022-11-21T22:36:20.308Z,6.69
2022-11-21T22:38:47.215Z,6.96
2022-11-21T22:41:16.744Z,6.72
2022-11-21T22:43:44.482Z,6.57
2022-11-21T22:46:12.995Z,6.74
2022-11-21T22:48:40.346Z,6.92
2022-11-21T22:51:08.050Z,6.88
2022-11-21T22:53:39.974Z,6.95
2022-11-21T22:56:10.039Z,6.98
2022-11-21T22:58:39.506Z,7.01
2022-11-21T23:01:15.061Z,6.93
2022-11-21T23:03:43.214Z,6.73
2022-11-21T23:06:13.278Z,6.59
2022-11-21T23:08:41.300Z,7.02
2022-11-21T23:11:13.271Z,6.38
2022-11-21T23:13:42.842Z,6.58
2022-11-21T23:16:10.597Z,6.91
2022-11-21T23:18:37.710Z,6.83
2022-11-21T23:21:05.049Z,6.68
2022-11-21T23:23:32.451Z,6.77
2022-11-21T23:25:59.636Z,6.68
2022-11-21T23:28:26.950Z,6.84
2022-11-21T23:30:53.996Z,6.67
2022-11-21T23:33:21.206Z,6.67
2022-11-21T23:35:48.321Z,6.74
2022-11-21T23:38:17.096Z,6.81
2022-11-21T23:40:48.003Z,6.80
2022-11-21T23:43:16.529Z,6.64
2022-11-21T23:45:44.038Z,6.64
2022-11-21T23:48:11.560Z,6.30
2022-11-21T23:50:38.422Z,6.53
2022-11-21T23:53:05.342Z,6.23
2022-11-21T23:55:32.455Z,6.44
2022-11-21T23:57:59.709Z,6.36
